Time;durP1;ratioP1;P1;durP2;ratioP2;P2;SDS_P1;SDS_P2;PMS_P1;PMS_P2;Temp;Humidity;BMP_temperature;BMP_pressure;BME280_temperature;BME280_humidity;BME280_pressure;Samples;Min_cycle;Max_cycle;Signal;HPM_P1;HPM_P2
2023/04/29 00:01:28;;;;;;;31.50;22.67;;;12.00;99.90;;;;;;5020616;28;20246;-79
2023/04/29 00:03:54;;;;;;;34.43;22.93;;;12.00;99.90;;;;;;5024124;28;20176;-79
2023/04/29 00:06:20;;;;;;;35.77;23.47;;;12.00;99.90;;;;;;5028578;28;20569;-79
2023/04/29 00:08:45;;;;;;;37.27;23.63;;;12.00;99.90;;;;;;5031325;28;20180;-80
2023/04/29 00:11:11;;;;;;;34.87;23.03;;;11.90;99.90;;;;;;5027638;28;20185;-79
2023/04/29 00:13:39;;;;;;;35.83;25.17;;;11.80;99.90;;;;;;5016252;28;20215;-81
2023/04/29 00:16:06;;;;;;;38.10;25.07;;;11.80;99.90;;;;;;5028193;28;20196;-79
2023/04/29 00:18:31;;;;;;;36.97;23.73;;;11.70;99.90;;;;;;5011036;28;20200;-80
2023/04/29 00:20:57;;;;;;;38.40;24.87;;;11.70;99.90;;;;;;5010902;28;20239;-80
2023/04/29 00:23:22;;;;;;;41.40;25.80;;;11.60;99.90;;;;;;5011213;28;20185;-78
2023/04/29 00:25:49;;;;;;;42.13;25.30;;;11.60;99.90;;;;;;5014022;28;20502;-79
2023/04/29 00:28:14;;;;;;;43.70;27.07;;;11.50;99.90;;;;;;5014632;28;20264;-79
2023/04/29 00:30:40;;;;;;;48.03;26.97;;;11.40;99.90;;;;;;5023906;28;20267;-81
2023/04/29 00:33:06;;;;;;;45.23;28.10;;;11.50;99.90;;;;;;5027714;28;20184;-81
2023/04/29 00:35:31;;;;;;;47.77;28.30;;;11.40;99.90;;;;;;5032034;28;20204;-79
2023/04/29 00:37:57;;;;;;;46.97;28.17;;;11.40;99.90;;;;;;5031900;28;20256;-79
2023/04/29 00:40:22;;;;;;;52.30;30.77;;;11.40;99.90;;;;;;5033061;28;20606;-79
2023/04/29 00:42:48;;;;;;;47.77;28.90;;;11.30;99.90;;;;;;5032046;28;20647;-80
2023/04/29 00:45:13;;;;;;;50.93;26.17;;;11.30;99.90;;;;;;5032308;28;20199;-81
2023/04/29 00:47:39;;;;;;;52.27;28.53;;;11.30;99.90;;;;;;5031554;28;20655;-80
2023/04/29 00:50:06;;;;;;;42.97;26.67;;;11.20;99.90;;;;;;5032825;28;20176;-79
2023/04/29 00:52:32;;;;;;;46.97;27.33;;;11.20;99.90;;;;;;5025961;28;20244;-79
2023/04/29 00:54:58;;;;;;;49.27;28.17;;;11.20;99.90;;;;;;5012424;28;20181;-79
2023/04/29 00:57:27;;;;;;;50.77;29.70;;;11.20;99.90;;;;;;5013185;28;20216;-80
2023/04/29 00:59:54;;;;;;;51.37;29.10;;;11.20;99.90;;;;;;5016655;28;20634;-79
2023/04/29 01:02:19;;;;;;;48.90;29.67;;;11.20;99.90;;;;;;5029942;28;20212;-79
2023/04/29 01:04:45;;;;;;;51.00;30.80;;;11.20;99.90;;;;;;5031441;28;20256;-79
2023/04/29 01:07:28;;;;;;;56.10;31.77;;;11.20;99.90;;;;;;5023946;28;20201;-80
2023/04/29 01:10:03;;;;;;;51.67;30.10;;;11.20;99.90;;;;;;5012494;28;20246;-79
2023/04/29 01:13:00;;;;;;;55.93;29.83;;;11.10;99.90;;;;;;5024269;28;20199;-79
2023/04/29 01:15:47;;;;;;;49.93;29.77;;;11.10;99.90;;;;;;5050196;28;20184;-79
2023/04/29 01:18:35;;;;;;;55.20;30.00;;;11.10;99.90;;;;;;5027770;28;20184;-79
2023/04/29 01:21:01;;;;;;;68.50;35.27;;;11.10;99.90;;;;;;5021874;28;20528;-80
2023/04/29 01:23:30;;;;;;;62.10;33.60;;;11.10;99.90;;;;;;5031536;28;20192;-79
2023/04/29 01:25:57;;;;;;;63.13;34.67;;;11.00;99.90;;;;;;5015039;28;20220;-79
2023/04/29 01:28:53;;;;;;;66.53;34.57;;;11.00;99.90;;;;;;5022544;28;20534;-79
2023/04/29 01:31:24;;;;;;;65.97;33.30;;;11.00;99.90;;;;;;5021630;28;20229;-81
2023/04/29 01:33:57;;;;;;;65.37;34.37;;;10.90;99.90;;;;;;5021498;28;20564;-79
2023/04/29 01:36:26;;;;;;;73.60;35.27;;;10.90;99.90;;;;;;5031643;28;20323;-79
2023/04/29 01:39:31;;;;;;;71.27;35.20;;;10.90;99.90;;;;;;5032905;28;20315;-79
2023/04/29 01:42:05;;;;;;;71.43;34.50;;;10.90;99.90;;;;;;5020103;28;20184;-79
2023/04/29 01:44:32;;;;;;;69.27;34.53;;;10.80;99.90;;;;;;5032093;28;20245;-79
2023/04/29 01:46:59;;;;;;;71.67;34.47;;;10.80;99.90;;;;;;5030834;28;20344;-79
2023/04/29 01:49:26;;;;;;;68.43;33.20;;;10.80;99.90;;;;;;5031414;28;20177;-80
2023/04/29 01:51:51;;;;;;;71.63;34.17;;;10.80;99.90;;;;;;5030309;28;20208;-82
2023/04/29 01:54:17;;;;;;;68.80;34.47;;;10.80;99.90;;;;;;5011538;28;20176;-80
2023/04/29 01:56:43;;;;;;;69.63;33.37;;;10.70;99.90;;;;;;5011935;28;20689;-79
2023/04/29 01:59:08;;;;;;;69.27;33.43;;;10.70;99.90;;;;;;5012753;28;20200;-80
2023/04/29 02:01:34;;;;;;;67.43;32.87;;;10.70;99.90;;;;;;5011700;28;20549;-79
2023/04/29 02:04:00;;;;;;;64.13;30.53;;;10.60;99.90;;;;;;5012713;28;20667;-79
2023/04/29 02:06:26;;;;;;;66.70;32.47;;;10.60;99.90;;;;;;5012906;28;20192;-80
2023/04/29 02:08:52;;;;;;;72.27;32.80;;;10.60;99.90;;;;;;5011287;28;20628;-80
2023/04/29 02:11:17;;;;;;;64.80;31.80;;;10.50;99.90;;;;;;5012427;28;20193;-80
2023/04/29 02:13:43;;;;;;;63.83;30.57;;;10.50;99.90;;;;;;5012519;28;20249;-80
2023/04/29 02:16:11;;;;;;;65.20;30.67;;;10.50;99.90;;;;;;5011163;28;20270;-79
2023/04/29 02:18:37;;;;;;;64.13;30.73;;;10.40;99.90;;;;;;5011084;28;20204;-79
2023/04/29 02:21:02;;;;;;;61.47;31.23;;;10.40;99.90;;;;;;5012292;28;20493;-79
2023/04/29 02:23:29;;;;;;;63.10;30.50;;;10.40;99.90;;;;;;5010986;28;20185;-80
2023/04/29 02:25:54;;;;;;;64.10;30.87;;;10.40;99.90;;;;;;5011975;28;20632;-80
2023/04/29 02:28:20;;;;;;;72.73;32.57;;;10.50;99.90;;;;;;5012939;28;20199;-79
2023/04/29 02:30:45;;;;;;;67.00;31.60;;;10.50;99.90;;;;;;5012184;28;20199;-79
2023/04/29 02:33:11;;;;;;;66.37;31.57;;;10.50;99.90;;;;;;5011147;28;20591;-79
2023/04/29 02:35:36;;;;;;;66.97;31.87;;;10.50;99.90;;;;;;5011041;28;20193;-79
2023/04/29 02:38:02;;;;;;;59.83;30.60;;;10.40;99.90;;;;;;5012055;28;20180;-79
2023/04/29 02:40:27;;;;;;;61.77;30.50;;;10.40;99.90;;;;;;5012160;28;20211;-79
2023/04/29 02:42:53;;;;;;;59.90;30.10;;;10.40;99.90;;;;;;5011994;28;20176;-79
2023/04/29 02:45:19;;;;;;;60.27;30.47;;;10.40;99.90;;;;;;5011963;28;20173;-80
2023/04/29 02:47:44;;;;;;;61.23;30.90;;;10.30;99.90;;;;;;5009718;28;20230;-79
2023/04/29 02:50:10;;;;;;;65.47;31.10;;;10.30;99.90;;;;;;5011865;28;20668;-80
2023/04/29 02:52:35;;;;;;;65.97;31.50;;;10.30;99.90;;;;;;5012410;28;20177;-79
2023/04/29 02:55:01;;;;;;;61.53;31.87;;;10.40;99.90;;;;;;5012125;28;20223;-80
2023/04/29 02:57:28;;;;;;;66.13;31.67;;;10.30;99.90;;;;;;5010632;28;20197;-79
2023/04/29 02:59:54;;;;;;;64.90;31.57;;;10.30;99.90;;;;;;5010055;28;20201;-80
2023/04/29 03:02:19;;;;;;;60.63;31.33;;;10.30;99.90;;;;;;5010741;28;20177;-79
2023/04/29 03:04:45;;;;;;;67.00;29.43;;;10.30;99.90;;;;;;5011837;28;20165;-79
2023/04/29 03:07:11;;;;;;;61.83;33.03;;;10.30;99.90;;;;;;5010172;28;20188;-80
2023/04/29 03:09:36;;;;;;;64.97;31.37;;;10.40;99.90;;;;;;5010449;28;20177;-79
2023/04/29 03:12:02;;;;;;;64.23;32.53;;;10.30;99.90;;;;;;5010848;28;20532;-79
2023/04/29 03:14:28;;;;;;;65.17;32.13;;;10.30;99.90;;;;;;5010914;28;20177;-80
2023/04/29 03:16:55;;;;;;;57.10;29.30;;;10.30;99.90;;;;;;5010521;28;20567;-80
2023/04/29 03:19:21;;;;;;;59.23;29.53;;;10.30;99.90;;;;;;5011958;28;20189;-80
2023/04/29 03:21:46;;;;;;;61.57;30.70;;;10.30;99.90;;;;;;5010772;28;20169;-79
2023/04/29 03:24:12;;;;;;;59.87;30.53;;;10.30;99.90;;;;;;5012369;28;20248;-80
2023/04/29 03:26:37;;;;;;;54.57;30.73;;;10.20;99.90;;;;;;5010380;28;20661;-80
2023/04/29 03:29:03;;;;;;;54.50;28.00;;;10.20;99.90;;;;;;5011808;28;20203;-80
2023/04/29 03:31:28;;;;;;;53.20;29.27;;;10.10;99.90;;;;;;5011898;28;20226;-79
2023/04/29 03:33:54;;;;;;;52.60;27.33;;;10.20;99.90;;;;;;5009820;28;20677;-79
2023/04/29 03:36:20;;;;;;;50.27;27.10;;;10.10;99.90;;;;;;5010323;28;20574;-79
2023/04/29 03:38:45;;;;;;;49.03;25.93;;;10.20;99.90;;;;;;5010232;28;20224;-79
2023/04/29 03:41:11;;;;;;;43.23;24.80;;;10.20;99.90;;;;;;5011244;28;20169;-79
2023/04/29 03:43:36;;;;;;;47.53;23.23;;;10.10;99.90;;;;;;5011605;28;20176;-81
2023/04/29 03:46:02;;;;;;;44.17;23.93;;;10.10;99.90;;;;;;5011332;28;20193;-79
2023/04/29 03:48:27;;;;;;;42.03;22.77;;;10.00;99.90;;;;;;5011352;28;20555;-79
2023/04/29 03:50:53;;;;;;;39.57;22.23;;;10.00;99.90;;;;;;5010148;28;20319;-79
2023/04/29 03:53:20;;;;;;;38.57;21.80;;;10.10;99.90;;;;;;5010128;28;20214;-79
2023/04/29 03:55:47;;;;;;;38.77;21.87;;;10.10;99.90;;;;;;5011310;28;20549;-79
2023/04/29 03:58:13;;;;;;;38.47;22.47;;;10.00;99.90;;;;;;5011196;28;20185;-79
2023/04/29 04:00:38;;;;;;;36.33;21.73;;;10.00;99.90;;;;;;5015083;28;20199;-79
2023/04/29 04:03:04;;;;;;;38.03;21.90;;;10.00;99.90;;;;;;5013596;28;20605;-79
2023/04/29 04:05:29;;;;;;;35.30;20.40;;;10.00;99.90;;;;;;5014369;28;20275;-79
2023/04/29 04:07:55;;;;;;;39.47;21.43;;;10.00;99.90;;;;;;5014736;28;20177;-78
2023/04/29 04:10:20;;;;;;;40.00;21.50;;;9.90;99.90;;;;;;5013153;28;20276;-79
2023/04/29 04:12:46;;;;;;;34.63;20.40;;;9.90;99.90;;;;;;5014792;28;20214;-79
2023/04/29 04:15:12;;;;;;;32.27;19.37;;;9.90;99.90;;;;;;5014788;28;20614;-80
2023/04/29 04:17:38;;;;;;;33.80;19.97;;;9.80;99.90;;;;;;5013352;28;20189;-79
2023/04/29 04:20:04;;;;;;;35.13;19.60;;;9.90;99.90;;;;;;5013527;28;20617;-79
2023/04/29 04:22:29;;;;;;;35.80;20.97;;;9.90;99.90;;;;;;5014778;28;20242;-80
2023/04/29 04:24:55;;;;;;;30.47;18.50;;;9.90;99.90;;;;;;5013658;28;20177;-79
2023/04/29 04:27:21;;;;;;;30.90;18.40;;;9.90;99.90;;;;;;5014553;28;20248;-78
2023/04/29 04:29:46;;;;;;;33.27;19.70;;;9.90;99.90;;;;;;5014287;28;20667;-79
2023/04/29 04:32:12;;;;;;;32.13;19.07;;;9.90;99.90;;;;;;5014655;28;20216;-79
2023/04/29 04:34:41;;;;;;;31.60;18.77;;;9.90;99.90;;;;;;5014664;28;20185;-79
2023/04/29 04:37:07;;;;;;;31.07;18.80;;;9.90;99.90;;;;;;5013038;28;20205;-79
2023/04/29 04:39:32;;;;;;;29.40;17.50;;;9.90;99.90;;;;;;5014417;28;20231;-79
2023/04/29 04:41:58;;;;;;;31.00;18.67;;;9.90;99.90;;;;;;5012410;28;20213;-79
2023/04/29 04:44:23;;;;;;;33.60;19.17;;;9.90;99.90;;;;;;5012811;28;20173;-79
2023/04/29 04:46:52;;;;;;;32.37;18.33;;;9.90;99.90;;;;;;5014012;28;20193;-79
2023/04/29 04:49:17;;;;;;;36.97;19.00;;;9.80;99.90;;;;;;5013983;28;20187;-79
2023/04/29 04:51:44;;;;;;;34.33;19.13;;;9.80;99.90;;;;;;5012696;28;20185;-79
2023/04/29 04:54:10;;;;;;;28.67;17.83;;;9.80;99.90;;;;;;5014042;28;20169;-78
2023/04/29 04:56:36;;;;;;;33.37;19.27;;;9.80;99.90;;;;;;5012304;28;20246;-79
2023/04/29 04:59:02;;;;;;;33.30;19.50;;;9.90;99.90;;;;;;5013727;28;20192;-79
2023/04/29 05:01:28;;;;;;;34.90;18.87;;;9.90;99.90;;;;;;5012526;28;20188;-79
2023/04/29 05:03:54;;;;;;;32.37;18.97;;;9.80;99.90;;;;;;5013162;28;20259;-79
2023/04/29 05:06:19;;;;;;;33.20;19.33;;;9.80;99.90;;;;;;5012448;28;20711;-79
2023/04/29 05:08:45;;;;;;;30.37;18.57;;;9.80;99.90;;;;;;5013689;28;20177;-79
2023/04/29 05:11:19;;;;;;;32.53;19.50;;;9.80;99.90;;;;;;5012903;28;20247;-79
2023/04/29 05:13:44;;;;;;;31.67;18.03;;;9.90;99.90;;;;;;5012382;28;20763;-78
2023/04/29 05:16:10;;;;;;;29.67;18.83;;;9.90;99.90;;;;;;5013413;28;20224;-78
2023/04/29 05:18:36;;;;;;;35.27;18.27;;;9.90;99.90;;;;;;5013944;28;20192;-78
2023/04/29 05:21:01;;;;;;;27.57;17.03;;;9.90;99.90;;;;;;5014345;28;20227;-80
2023/04/29 05:23:27;;;;;;;28.37;17.97;;;9.90;99.90;;;;;;5014963;28;20173;-79
2023/04/29 05:25:53;;;;;;;30.43;18.03;;;9.90;99.90;;;;;;5013570;28;20246;-80
2023/04/29 05:28:18;;;;;;;30.97;18.03;;;9.90;99.90;;;;;;5015017;28;20307;-79
2023/04/29 05:30:44;;;;;;;34.33;19.07;;;9.90;99.90;;;;;;5013089;28;20620;-79
2023/04/29 05:33:10;;;;;;;30.30;18.23;;;9.90;99.90;;;;;;5012861;28;20169;-79
2023/04/29 05:35:36;;;;;;;33.03;18.33;;;9.90;99.90;;;;;;5013220;28;20547;-79
2023/04/29 05:38:02;;;;;;;31.47;19.07;;;10.00;99.90;;;;;;5013607;28;20177;-79
2023/04/29 05:40:28;;;;;;;25.77;16.73;;;10.00;99.90;;;;;;5014948;28;20189;-79
2023/04/29 05:42:54;;;;;;;29.40;17.50;;;10.00;99.90;;;;;;5015263;28;20202;-79
2023/04/29 05:45:19;;;;;;;33.33;18.33;;;10.00;99.90;;;;;;5014203;28;20244;-80
2023/04/29 05:47:45;;;;;;;34.03;18.67;;;10.00;99.90;;;;;;5013403;28;20176;-80
2023/04/29 05:50:10;;;;;;;28.67;17.23;;;10.00;99.90;;;;;;5013722;28;20206;-80
2023/04/29 05:52:36;;;;;;;28.23;17.90;;;10.00;99.90;;;;;;5013268;28;20202;-80
2023/04/29 05:55:02;;;;;;;28.50;17.90;;;10.00;99.90;;;;;;5013628;28;20225;-80
2023/04/29 05:57:27;;;;;;;23.77;16.20;;;10.00;99.90;;;;;;5013286;28;20239;-80
2023/04/29 05:59:56;;;;;;;28.17;17.63;;;10.00;99.90;;;;;;5013615;28;20254;-80
2023/04/29 06:02:22;;;;;;;28.90;17.83;;;10.00;99.90;;;;;;5012994;28;20177;-80
2023/04/29 06:04:47;;;;;;;27.57;18.43;;;10.00;99.90;;;;;;5015261;28;20176;-80
2023/04/29 06:07:13;;;;;;;24.77;16.70;;;10.00;99.90;;;;;;5014582;28;20265;-80
2023/04/29 06:09:39;;;;;;;25.73;17.00;;;10.00;99.90;;;;;;5014696;28;20181;-80
2023/04/29 06:12:05;;;;;;;27.10;16.90;;;10.00;99.90;;;;;;5013594;28;20196;-80
2023/04/29 06:14:30;;;;;;;30.27;17.57;;;10.00;99.90;;;;;;5014125;28;20699;-80
2023/04/29 06:16:56;;;;;;;31.37;18.40;;;10.00;99.90;;;;;;5014992;28;20246;-80
2023/04/29 06:19:22;;;;;;;31.20;18.43;;;10.00;99.90;;;;;;5013412;28;20265;-80
2023/04/29 06:21:47;;;;;;;29.10;18.00;;;9.90;99.90;;;;;;5012700;28;20169;-80
2023/04/29 06:24:13;;;;;;;29.17;17.50;;;10.00;99.90;;;;;;5014759;28;20314;-80
2023/04/29 06:26:39;;;;;;;25.47;17.00;;;10.00;99.90;;;;;;5013937;28;20296;-80
2023/04/29 06:29:04;;;;;;;30.40;16.40;;;10.00;99.90;;;;;;5013863;28;20636;-80
2023/04/29 06:31:30;;;;;;;25.77;17.03;;;10.00;99.90;;;;;;5013654;28;20173;-80
2023/04/29 06:33:55;;;;;;;27.53;16.97;;;10.00;99.90;;;;;;5012933;28;20177;-80
2023/04/29 06:36:21;;;;;;;27.17;17.87;;;10.00;99.90;;;;;;5014370;28;20246;-80
2023/04/29 06:38:46;;;;;;;25.60;17.60;;;10.00;99.90;;;;;;5013232;28;20246;-80
2023/04/29 06:41:12;;;;;;;25.33;16.97;;;10.00;99.90;;;;;;5013361;28;20249;-80
2023/04/29 06:43:37;;;;;;;23.77;15.70;;;10.00;99.90;;;;;;5015026;28;20238;-80
2023/04/29 06:46:03;;;;;;;27.83;17.37;;;10.00;99.90;;;;;;5014499;28;20216;-80
2023/04/29 06:48:28;;;;;;;25.03;16.60;;;10.10;99.90;;;;;;5013376;28;20185;-79
2023/04/29 06:50:56;;;;;;;26.23;16.70;;;10.10;99.90;;;;;;5015248;28;20229;-79
2023/04/29 06:53:23;;;;;;;24.47;15.30;;;10.10;99.90;;;;;;5015313;28;20192;-81
2023/04/29 06:55:48;;;;;;;21.60;15.53;;;10.10;99.90;;;;;;5015095;28;20204;-81
2023/04/29 06:58:17;;;;;;;22.50;16.20;;;10.10;99.90;;;;;;5012441;28;20181;-80
2023/04/29 07:00:48;;;;;;;26.13;16.33;;;10.10;99.90;;;;;;5012949;28;20521;-80
2023/04/29 07:03:14;;;;;;;24.70;16.80;;;10.20;99.90;;;;;;5014857;28;20276;-81
2023/04/29 07:05:41;;;;;;;23.77;15.40;;;10.20;99.90;;;;;;5014343;28;20197;-81
2023/04/29 07:08:09;;;;;;;26.70;16.63;;;10.20;99.90;;;;;;5013395;28;20237;-81
2023/04/29 07:10:34;;;;;;;23.50;15.20;;;10.20;99.90;;;;;;5013150;28;20249;-80
2023/04/29 07:13:00;;;;;;;21.57;16.10;;;10.20;99.90;;;;;;5014480;28;20656;-80
2023/04/29 07:15:27;;;;;;;24.17;16.43;;;10.20;99.90;;;;;;5012728;28;20207;-81
2023/04/29 07:17:52;;;;;;;21.70;15.50;;;10.20;99.90;;;;;;5014783;28;20173;-81
2023/04/29 07:20:19;;;;;;;23.97;15.30;;;10.20;99.90;;;;;;5013131;28;20323;-81
2023/04/29 07:22:44;;;;;;;23.03;16.40;;;10.20;99.90;;;;;;5014357;28;20172;-81
2023/04/29 07:25:10;;;;;;;22.83;15.27;;;10.20;99.90;;;;;;5014594;28;20181;-80
2023/04/29 07:27:39;;;;;;;25.83;15.73;;;10.20;99.90;;;;;;5013883;28;20184;-80
2023/04/29 07:30:05;;;;;;;23.30;16.93;;;10.30;99.90;;;;;;5012610;28;20208;-80
2023/04/29 07:32:31;;;;;;;22.70;16.10;;;10.30;99.90;;;;;;5013733;28;20192;-81
2023/04/29 07:34:57;;;;;;;21.63;15.80;;;10.30;99.90;;;;;;5012427;28;20184;-81
2023/04/29 07:37:23;;;;;;;22.97;15.63;;;10.30;99.90;;;;;;5012509;28;20211;-80
2023/04/29 07:39:48;;;;;;;21.50;15.97;;;10.30;99.90;;;;;;5015002;28;20571;-80
2023/04/29 07:42:14;;;;;;;22.80;15.27;;;10.30;99.90;;;;;;5015044;28;20200;-81
2023/04/29 07:44:40;;;;;;;22.53;14.67;;;10.30;99.90;;;;;;5012648;28;20668;-80
2023/04/29 07:47:05;;;;;;;19.70;14.27;;;10.30;99.90;;;;;;5011659;28;20238;-79
2023/04/29 07:49:31;;;;;;;22.13;15.87;;;10.40;99.90;;;;;;5012473;28;20176;-79
2023/04/29 07:51:56;;;;;;;20.53;14.63;;;10.40;99.90;;;;;;5011389;28;20188;-79
2023/04/29 07:54:22;;;;;;;21.57;15.37;;;10.30;99.90;;;;;;5013076;28;20181;-79
2023/04/29 07:56:48;;;;;;;24.07;16.07;;;10.40;99.90;;;;;;5013083;28;20204;-79
2023/04/29 07:59:14;;;;;;;23.70;16.10;;;10.50;99.90;;;;;;5013013;28;20200;-79
2023/04/29 08:01:40;;;;;;;21.97;15.03;;;10.40;99.90;;;;;;5013965;28;20588;-79
2023/04/29 08:04:06;;;;;;;23.60;15.77;;;10.40;99.90;;;;;;5012462;28;20178;-80
2023/04/29 08:06:32;;;;;;;23.43;16.23;;;10.40;99.90;;;;;;5010620;28;20220;-77
2023/04/29 08:08:58;;;;;;;24.47;16.83;;;10.40;99.90;;;;;;5011612;28;20173;-79
2023/04/29 08:11:24;;;;;;;29.27;18.37;;;10.40;99.90;;;;;;5012664;28;20180;-79
2023/04/29 08:13:50;;;;;;;24.67;17.13;;;10.40;99.90;;;;;;5011604;28;20304;-78
2023/04/29 08:16:16;;;;;;;29.20;16.80;;;10.40;99.90;;;;;;5011775;28;20238;-78
2023/04/29 08:18:41;;;;;;;34.17;18.97;;;10.40;99.90;;;;;;5010766;28;20727;-79
2023/04/29 08:21:10;;;;;;;40.67;21.13;;;10.50;99.90;;;;;;5011058;28;20208;-79
2023/04/29 08:23:36;;;;;;;38.77;21.83;;;10.40;99.90;;;;;;5011542;28;20174;-78
2023/04/29 08:26:02;;;;;;;36.50;23.80;;;10.40;99.90;;;;;;5013345;28;20212;-79
2023/04/29 08:28:27;;;;;;;37.23;23.10;;;10.30;99.90;;;;;;5011557;28;20178;-80
2023/04/29 08:30:53;;;;;;;37.33;22.27;;;10.40;99.90;;;;;;5012770;28;20169;-80
2023/04/29 08:33:19;;;;;;;32.13;19.57;;;10.40;99.90;;;;;;5013361;28;20188;-81
2023/04/29 08:35:44;;;;;;;29.93;18.20;;;10.40;99.90;;;;;;5013213;28;20193;-79
2023/04/29 08:38:10;;;;;;;30.30;19.50;;;10.40;99.90;;;;;;5012503;28;20169;-81
2023/04/29 08:40:41;;;;;;;29.23;20.07;;;10.40;99.90;;;;;;5011554;28;20298;-79
2023/04/29 08:43:08;;;;;;;29.43;19.40;;;10.40;99.90;;;;;;5012138;28;20170;-80
2023/04/29 08:45:35;;;;;;;28.20;19.17;;;10.40;99.90;;;;;;5012443;28;20197;-79
2023/04/29 08:48:04;;;;;;;31.97;19.80;;;10.40;99.90;;;;;;5015266;28;20215;-81
2023/04/29 08:50:31;;;;;;;36.07;21.53;;;10.40;99.90;;;;;;5014972;28;20185;-80
2023/04/29 08:52:57;;;;;;;33.20;21.30;;;10.50;99.90;;;;;;5015158;28;20178;-80
2023/04/29 08:55:23;;;;;;;37.67;22.00;;;10.50;99.90;;;;;;5013283;28;20596;-80
2023/04/29 08:57:50;;;;;;;32.23;21.70;;;10.50;99.90;;;;;;5014976;28;20556;-80
2023/04/29 09:00:18;;;;;;;35.50;21.70;;;10.50;99.90;;;;;;5014531;28;20276;-80
2023/04/29 09:02:49;;;;;;;40.10;24.73;;;10.60;99.90;;;;;;5013448;28;20223;-80
2023/04/29 09:05:15;;;;;;;33.37;22.60;;;10.50;99.90;;;;;;5015420;28;20577;-80
2023/04/29 09:07:41;;;;;;;37.20;22.87;;;10.60;99.90;;;;;;5013857;28;20173;-80
2023/04/29 09:10:08;;;;;;;40.90;24.83;;;10.60;99.90;;;;;;5015087;28;20233;-81
2023/04/29 09:12:34;;;;;;;38.40;24.40;;;10.60;99.90;;;;;;5014303;28;20189;-80
2023/04/29 09:15:01;;;;;;;37.93;24.60;;;10.60;99.90;;;;;;5014658;28;20187;-80
2023/04/29 09:17:44;;;;;;;39.33;24.47;;;10.60;99.90;;;;;;5013370;28;20231;-80
2023/04/29 09:20:19;;;;;;;40.03;25.60;;;10.70;99.90;;;;;;5013665;28;20283;-80
2023/04/29 09:22:52;;;;;;;41.00;25.03;;;10.60;99.90;;;;;;5014190;28;20169;-80
2023/04/29 09:25:19;;;;;;;42.37;27.07;;;10.60;99.90;;;;;;5014009;28;20716;-80
2023/04/29 09:27:45;;;;;;;45.93;26.17;;;10.60;99.90;;;;;;5014298;28;20169;-80
2023/04/29 09:30:12;;;;;;;35.03;24.60;;;10.70;99.90;;;;;;5017031;28;20203;-80
2023/04/29 09:32:38;;;;;;;40.73;22.83;;;10.70;99.90;;;;;;5016071;28;20260;-80
2023/04/29 09:35:26;;;;;;;41.03;24.20;;;10.70;99.90;;;;;;5015665;28;20212;-80
2023/04/29 09:37:53;;;;;;;34.80;23.10;;;10.70;99.90;;;;;;5014318;28;20205;-81
2023/04/29 09:40:33;;;;;;;36.67;23.40;;;10.70;99.90;;;;;;5015460;28;20216;-80
2023/04/29 09:42:59;;;;;;;36.03;24.17;;;10.70;99.90;;;;;;5016690;28;20169;-79
2023/04/29 09:45:40;;;;;;;37.23;23.63;;;10.70;99.90;;;;;;5013866;28;20679;-79
2023/04/29 09:48:07;;;;;;;30.47;20.57;;;10.80;99.90;;;;;;5012131;28;20259;-78
2023/04/29 09:50:35;;;;;;;32.63;20.70;;;10.80;99.90;;;;;;5012363;28;20177;-78
2023/04/29 09:53:02;;;;;;;32.17;21.23;;;10.80;99.90;;;;;;5014724;28;20185;-81
2023/04/29 09:55:28;;;;;;;30.40;20.33;;;10.80;99.90;;;;;;5012745;28;20196;-78
2023/04/29 09:57:54;;;;;;;32.73;20.07;;;10.80;99.90;;;;;;5012708;28;20177;-79
2023/04/29 10:00:19;;;;;;;30.07;21.13;;;10.80;99.90;;;;;;5013743;28;20664;-80
2023/04/29 10:02:47;;;;;;;31.47;20.17;;;10.80;99.90;;;;;;5013480;28;20173;-79
2023/04/29 10:05:13;;;;;;;32.80;19.43;;;10.80;99.90;;;;;;5012366;28;20183;-81
2023/04/29 10:07:40;;;;;;;30.63;19.50;;;10.90;99.90;;;;;;5013767;28;20178;-79
2023/04/29 10:10:07;;;;;;;29.27;20.20;;;10.90;99.90;;;;;;5013788;28;20207;-79
2023/04/29 10:12:39;;;;;;;31.10;19.90;;;10.90;99.90;;;;;;5013136;28;20185;-79
2023/04/29 10:15:25;;;;;;;28.50;18.90;;;11.00;99.90;;;;;;5013573;28;20520;-79
2023/04/29 10:18:31;;;;;;;28.57;18.43;;;11.10;99.90;;;;;;5013003;28;20203;-78
2023/04/29 10:21:01;;;;;;;27.40;17.60;;;11.10;99.90;;;;;;5012557;28;20674;-79
2023/04/29 10:23:28;;;;;;;26.20;18.80;;;11.20;99.90;;;;;;5013201;28;20193;-80
2023/04/29 10:25:56;;;;;;;30.37;18.00;;;11.30;99.90;;;;;;5012661;28;20189;-80
2023/04/29 10:28:23;;;;;;;28.83;18.70;;;11.30;99.90;;;;;;5012859;28;20636;-79
2023/04/29 10:30:53;;;;;;;30.43;18.47;;;11.40;99.90;;;;;;5011125;28;20192;-80
2023/04/29 10:33:22;;;;;;;29.67;19.27;;;11.40;99.90;;;;;;5012583;28;20189;-80
2023/04/29 10:35:48;;;;;;;29.73;18.87;;;11.50;99.90;;;;;;5011856;28;20201;-79
2023/04/29 10:38:22;;;;;;;24.93;17.50;;;11.50;99.90;;;;;;5012099;28;20525;-81
2023/04/29 10:40:49;;;;;;;26.27;18.47;;;11.60;99.90;;;;;;5014401;28;20177;-81
2023/04/29 10:43:15;;;;;;;23.00;17.50;;;11.60;99.90;;;;;;5025446;28;20678;-81
2023/04/29 10:45:40;;;;;;;28.97;18.77;;;11.60;99.90;;;;;;5031107;28;20200;-81
2023/04/29 10:48:11;;;;;;;25.97;18.23;;;11.60;99.90;;;;;;5027068;28;20560;-81
2023/04/29 10:50:46;;;;;;;27.07;17.87;;;11.70;99.90;;;;;;5012192;28;20229;-80
2023/04/29 10:53:16;;;;;;;29.13;17.70;;;11.80;99.90;;;;;;5012236;28;20196;-80
2023/04/29 10:55:45;;;;;;;26.40;17.53;;;11.80;99.90;;;;;;5022297;28;20197;-80
2023/04/29 10:58:43;;;;;;;26.67;17.90;;;11.90;99.90;;;;;;5029485;28;20569;-81
2023/04/29 11:01:14;;;;;;;27.17;18.47;;;12.00;99.90;;;;;;5032499;28;20218;-80
2023/04/29 11:03:54;;;;;;;26.63;18.13;;;12.10;99.90;;;;;;5033546;28;20189;-81
2023/04/29 11:06:23;;;;;;;21.50;15.97;;;12.20;99.90;;;;;;5033719;28;20705;-81
2023/04/29 11:09:11;;;;;;;25.73;17.30;;;12.30;99.90;;;;;;5030926;28;20554;-81
2023/04/29 11:11:42;;;;;;;23.53;15.67;;;12.40;99.90;;;;;;5032040;28;20255;-81
2023/04/29 11:14:10;;;;;;;25.03;16.87;;;12.40;99.90;;;;;;5033230;28;20165;-81
2023/04/29 11:16:36;;;;;;;21.20;16.83;;;12.50;99.90;;;;;;5031399;28;20197;-79
2023/04/29 11:19:08;;;;;;;27.03;16.63;;;12.70;99.90;;;;;;5033762;28;20208;-79
2023/04/29 11:21:37;;;;;;;23.80;16.40;;;12.80;99.90;;;;;;5033673;28;20188;-79
2023/04/29 11:24:05;;;;;;;21.37;15.30;;;12.80;99.90;;;;;;5032674;28;20271;-82
2023/04/29 11:26:31;;;;;;;22.73;15.23;;;12.90;99.90;;;;;;5032082;28;20662;-81
2023/04/29 11:28:57;;;;;;;19.87;14.97;;;12.90;99.90;;;;;;5033308;28;20260;-81
2023/04/29 11:31:31;;;;;;;22.03;15.07;;;13.00;99.90;;;;;;5031576;28;20177;-80
2023/04/29 11:33:57;;;;;;;21.83;16.27;;;13.10;99.90;;;;;;5030940;28;20180;-79
2023/04/29 11:36:22;;;;;;;23.83;16.30;;;13.30;99.90;;;;;;5032342;28;20219;-80
2023/04/29 11:38:48;;;;;;;21.03;15.27;;;13.30;99.90;;;;;;5031605;28;20231;-79
2023/04/29 11:41:14;;;;;;;22.07;14.97;;;13.40;99.90;;;;;;5032580;28;20176;-80
2023/04/29 11:43:40;;;;;;;23.80;14.47;;;13.40;99.90;;;;;;5038964;28;20172;-78
2023/04/29 11:46:13;;;;;;;19.77;14.10;;;13.50;99.90;;;;;;5037580;28;20196;-78
2023/04/29 11:48:49;;;;;;;20.77;14.57;;;13.70;99.90;;;;;;5038118;28;20181;-79
2023/04/29 11:51:17;;;;;;;18.70;13.83;;;13.60;99.90;;;;;;5037370;28;20710;-79
2023/04/29 11:53:44;;;;;;;17.77;13.77;;;13.70;99.90;;;;;;5036259;28;20172;-78
2023/04/29 11:56:10;;;;;;;22.53;14.93;;;13.70;99.90;;;;;;5034925;28;20675;-79
2023/04/29 11:58:36;;;;;;;16.47;14.23;;;13.80;99.90;;;;;;5036159;28;20175;-80
2023/04/29 12:01:03;;;;;;;19.70;14.27;;;13.90;99.90;;;;;;5035981;28;20585;-79
2023/04/29 12:03:30;;;;;;;16.57;13.50;;;13.90;99.90;;;;;;5030014;28;20368;-79
2023/04/29 12:05:56;;;;;;;17.80;15.10;;;13.80;99.90;;;;;;5031299;28;20330;-79
2023/04/29 12:08:23;;;;;;;18.47;15.90;;;13.90;99.90;;;;;;5030827;28;20263;-79
2023/04/29 12:10:49;;;;;;;16.93;13.33;;;14.00;99.90;;;;;;5030932;28;20280;-79
2023/04/29 12:13:16;;;;;;;17.37;13.33;;;14.10;99.90;;;;;;5029401;28;20664;-80
2023/04/29 12:15:43;;;;;;;17.00;12.20;;;14.30;99.90;;;;;;5030396;28;20683;-80
2023/04/29 12:18:09;;;;;;;19.70;12.30;;;14.40;99.90;;;;;;5030928;28;20195;-79
2023/04/29 12:20:35;;;;;;;15.00;11.87;;;14.40;99.90;;;;;;5034042;28;20200;-79
2023/04/29 12:23:13;;;;;;;16.23;12.00;;;14.70;99.90;;;;;;5034221;28;20172;-80
2023/04/29 12:25:40;;;;;;;18.93;12.80;;;14.80;99.90;;;;;;5034328;28;20214;-80
2023/04/29 12:28:11;;;;;;;13.93;11.27;;;14.80;99.90;;;;;;5034382;28;20259;-79
2023/04/29 12:30:37;;;;;;;15.10;11.83;;;14.90;99.90;;;;;;5032098;28;20176;-81